Time;durP1;ratioP1;P1;durP2;ratioP2;P2;SDS_P1;SDS_P2;PMS_P1;PMS_P2;Temp;Humidity;BMP_temperature;BMP_pressure;BME280_temperature;BME280_humidity;BME280_pressure;Samples;Min_cycle;Max_cycle;Signal;HPM_P1;HPM_P2
2021/01/09 06:00:38;;;;;;;20.13;8.80;;;0.10;97.30;;;;;;5895427;23;20495;-77
2021/01/09 06:03:36;;;;;;;22.30;9.80;;;0.10;97.30;;;;;;4916382;29;20429;-76
2021/01/09 06:06:15;;;;;;;20.60;9.10;;;0.10;97.30;;;;;;4911155;29;20452;-76
2021/01/09 06:08:51;;;;;;;23.90;9.20;;;0.10;97.30;;;;;;4919536;29;20424;-76
2021/01/09 06:11:22;;;;;;;24.23;9.00;;;0.10;97.30;;;;;;4910565;29;21070;-79
2021/01/09 06:13:49;;;;;;;26.10;9.30;;;0.20;97.30;;;;;;4901421;29;20430;-76
2021/01/09 06:16:15;;;;;;;21.40;8.30;;;0.20;97.30;;;;;;4900087;29;20428;-79
2021/01/09 06:18:42;;;;;;;22.90;9.47;;;0.20;97.30;;;;;;4900221;29;21058;-77
2021/01/09 06:21:09;;;;;;;19.37;8.17;;;0.20;97.30;;;;;;4898750;29;20477;-76
2021/01/09 06:23:34;;;;;;;20.20;10.30;;;0.20;97.30;;;;;;4898754;29;20422;-77
2021/01/09 06:26:02;;;;;;;18.30;8.93;;;0.20;97.30;;;;;;4898682;29;20425;-77
2021/01/09 06:28:36;;;;;;;21.20;9.50;;;0.20;97.30;;;;;;4898917;29;20184;-76
2021/01/09 06:31:02;;;;;;;20.57;8.50;;;0.20;97.30;;;;;;4898489;29;20493;-76
2021/01/09 06:33:32;;;;;;;24.40;9.67;;;0.20;97.30;;;;;;4900152;29;20410;-76
2021/01/09 06:36:00;;;;;;;23.27;9.70;;;0.20;97.30;;;;;;4898197;29;20512;-76
2021/01/09 06:38:27;;;;;;;25.00;9.73;;;0.30;97.30;;;;;;4898477;29;20827;-77
2021/01/09 06:40:54;;;;;;;25.10;9.67;;;0.30;97.30;;;;;;4898814;29;20505;-79
2021/01/09 06:43:21;;;;;;;22.00;8.57;;;0.30;97.30;;;;;;4898462;29;20432;-76
2021/01/09 06:45:49;;;;;;;21.30;8.73;;;0.30;97.30;;;;;;4898111;29;20425;-76
2021/01/09 06:48:17;;;;;;;21.50;8.83;;;0.30;97.30;;;;;;4898017;29;20786;-76
2021/01/09 06:50:43;;;;;;;19.80;8.60;;;0.30;97.30;;;;;;4898112;29;20437;-76
2021/01/09 06:53:14;;;;;;;19.77;8.13;;;0.30;97.30;;;;;;4899270;29;20440;-77
2021/01/09 06:55:40;;;;;;;18.47;8.70;;;0.30;97.30;;;;;;4898575;29;20184;-77
2021/01/09 06:58:08;;;;;;;19.83;9.27;;;0.30;97.30;;;;;;4898745;29;20468;-76
2021/01/09 07:00:35;;;;;;;19.83;8.93;;;0.30;97.30;;;;;;4898828;29;20207;-78
2021/01/09 07:03:23;;;;;;;19.47;8.33;;;0.30;97.30;;;;;;4898447;29;20974;-78
2021/01/09 07:05:51;;;;;;;20.30;9.07;;;0.40;97.30;;;;;;4899426;29;20441;-78
2021/01/09 07:08:29;;;;;;;24.87;9.80;;;0.40;97.30;;;;;;4900270;29;20452;-76
2021/01/09 07:11:02;;;;;;;21.30;9.90;;;0.40;97.30;;;;;;4899408;29;20488;-77
2021/01/09 07:13:28;;;;;;;19.23;8.50;;;0.40;97.30;;;;;;4898643;29;20488;-78
2021/01/09 07:16:14;;;;;;;18.80;8.80;;;0.40;97.30;;;;;;4898153;29;20432;-78
2021/01/09 07:18:50;;;;;;;21.60;9.50;;;0.40;97.30;;;;;;4905094;29;20487;-78
2021/01/09 07:21:21;;;;;;;22.93;8.87;;;0.50;97.30;;;;;;4902382;29;20453;-77
2021/01/09 07:23:55;;;;;;;17.77;8.27;;;0.50;97.30;;;;;;4898606;29;20436;-77
2021/01/09 07:26:24;;;;;;;22.50;9.40;;;0.50;97.30;;;;;;4900004;29;20423;-77
2021/01/09 07:28:52;;;;;;;19.63;9.20;;;0.50;97.30;;;;;;4899973;29;20428;-78
2021/01/09 07:31:23;;;;;;;17.47;7.70;;;0.50;97.30;;;;;;4898529;29;20446;-77
2021/01/09 07:33:57;;;;;;;29.17;9.63;;;0.50;97.30;;;;;;4898130;29;20421;-78
2021/01/09 07:36:27;;;;;;;20.50;8.20;;;0.50;97.30;;;;;;4899474;29;20467;-77
2021/01/09 07:39:03;;;;;;;20.37;9.47;;;0.50;97.30;;;;;;4899638;29;20456;-79
2021/01/09 07:41:34;;;;;;;17.53;8.03;;;0.50;97.30;;;;;;4898759;29;20447;-78
2021/01/09 07:44:20;;;;;;;17.70;8.30;;;0.50;97.30;;;;;;4897976;29;20416;-77
2021/01/09 07:46:50;;;;;;;16.37;7.63;;;0.50;97.30;;;;;;4895273;29;20939;-77
2021/01/09 07:49:25;;;;;;;16.73;8.60;;;0.50;97.30;;;;;;4898689;29;20480;-78
2021/01/09 07:52:09;;;;;;;17.40;8.23;;;0.50;97.30;;;;;;4898795;29;20446;-78
2021/01/09 07:54:40;;;;;;;17.47;7.87;;;0.50;97.30;;;;;;4899759;29;20417;-78
2021/01/09 07:57:18;;;;;;;14.90;6.93;;;0.50;97.30;;;;;;4901235;29;20799;-78
2021/01/09 08:00:07;;;;;;;19.80;8.33;;;0.50;97.30;;;;;;4899521;29;20461;-78
2021/01/09 08:02:34;;;;;;;18.40;8.30;;;0.50;97.30;;;;;;4901183;29;20459;-76
2021/01/09 08:05:21;;;;;;;19.80;9.20;;;0.60;97.30;;;;;;4901482;29;20496;-76
2021/01/09 08:07:51;;;;;;;17.70;7.97;;;0.60;97.30;;;;;;4897785;29;20520;-76
2021/01/09 08:10:25;;;;;;;16.87;7.83;;;0.60;97.30;;;;;;4900091;29;20839;-77
2021/01/09 08:13:01;;;;;;;15.00;7.00;;;0.60;97.30;;;;;;4900785;29;20519;-78
2021/01/09 08:15:28;;;;;;;19.17;7.47;;;0.70;97.30;;;;;;4896787;29;20417;-77
2021/01/09 08:17:58;;;;;;;16.40;8.10;;;0.70;97.30;;;;;;4900722;29;20460;-76
2021/01/09 08:20:24;;;;;;;19.47;9.27;;;0.70;97.30;;;;;;4900406;29;20469;-76
2021/01/09 08:22:58;;;;;;;18.30;8.47;;;0.70;97.30;;;;;;4900157;29;20455;-78
2021/01/09 08:25:31;;;;;;;15.77;8.03;;;0.70;97.30;;;;;;4900323;29;20182;-77
2021/01/09 08:27:59;;;;;;;20.70;8.67;;;0.70;97.30;;;;;;4900968;29;20995;-78
2021/01/09 08:30:29;;;;;;;22.90;8.80;;;0.70;97.30;;;;;;4899703;29;20414;-77
2021/01/09 08:33:09;;;;;;;19.77;9.27;;;0.70;97.30;;;;;;4923598;29;20425;-77
2021/01/09 08:35:40;;;;;;;21.43;9.10;;;0.70;97.30;;;;;;4899446;29;20421;-77
2021/01/09 08:38:06;;;;;;;20.57;8.23;;;0.80;97.30;;;;;;4899452;29;20483;-77
2021/01/09 08:40:33;;;;;;;17.73;7.57;;;0.90;97.30;;;;;;4900085;29;20414;-77
2021/01/09 08:43:07;;;;;;;18.57;8.20;;;0.90;97.30;;;;;;4899827;29;20508;-77
2021/01/09 08:45:45;;;;;;;16.47;7.87;;;0.90;97.30;;;;;;4900244;29;20916;-78
2021/01/09 08:48:21;;;;;;;14.90;7.80;;;0.90;97.30;;;;;;4900554;29;20954;-77
2021/01/09 08:50:52;;;;;;;19.33;7.47;;;0.90;97.30;;;;;;4900459;29;20452;-77
2021/01/09 08:53:20;;;;;;;19.30;8.97;;;0.90;97.30;;;;;;4902499;29;20519;-77
2021/01/09 08:55:46;;;;;;;14.47;7.10;;;1.00;97.30;;;;;;4899928;29;20433;-77
2021/01/09 08:58:14;;;;;;;19.70;8.60;;;1.00;97.30;;;;;;4899580;29;21018;-77
2021/01/09 09:00:40;;;;;;;22.70;8.63;;;1.00;97.30;;;;;;4900283;29;20496;-77
2021/01/09 09:03:12;;;;;;;19.30;8.33;;;1.00;97.30;;;;;;4899752;29;20954;-78
2021/01/09 09:05:39;;;;;;;16.90;8.63;;;1.00;97.30;;;;;;4898134;29;20414;-78
2021/01/09 09:08:10;;;;;;;17.07;8.10;;;1.10;97.30;;;;;;4899851;29;20426;-77
2021/01/09 09:10:38;;;;;;;13.63;7.07;;;1.00;97.30;;;;;;4899959;29;20445;-77
2021/01/09 09:13:22;;;;;;;19.13;8.40;;;1.00;97.30;;;;;;4899659;29;20513;-77
2021/01/09 09:15:48;;;;;;;26.43;12.60;;;1.00;97.30;;;;;;4899360;29;20425;-77
2021/01/09 09:18:21;;;;;;;18.37;8.50;;;1.10;97.30;;;;;;4899633;29;20516;-77
2021/01/09 09:20:51;;;;;;;17.83;8.40;;;1.10;97.30;;;;;;4899304;29;20433;-77
2021/01/09 09:23:22;;;;;;;17.40;7.83;;;1.10;97.30;;;;;;4895172;29;20433;-77
2021/01/09 09:26:13;;;;;;;16.67;8.33;;;1.10;97.30;;;;;;4899601;29;20418;-77
2021/01/09 09:28:54;;;;;;;20.97;9.87;;;1.10;97.30;;;;;;4899300;29;20414;-77
2021/01/09 09:31:28;;;;;;;25.37;10.67;;;1.10;97.30;;;;;;4899311;29;20480;-78
2021/01/09 09:33:56;;;;;;;17.97;8.00;;;1.10;97.30;;;;;;4899697;29;20920;-78
2021/01/09 09:36:22;;;;;;;23.90;9.43;;;1.10;97.30;;;;;;4899176;29;20428;-77
2021/01/09 09:38:48;;;;;;;18.57;8.50;;;1.10;97.30;;;;;;4898721;29;20465;-78
2021/01/09 09:41:13;;;;;;;23.77;7.93;;;1.10;97.30;;;;;;4899678;29;20208;-78
2021/01/09 09:43:39;;;;;;;20.63;9.43;;;1.10;97.30;;;;;;4899386;29;20644;-78
2021/01/09 09:46:06;;;;;;;18.93;7.90;;;1.10;97.30;;;;;;4899477;29;20181;-78
2021/01/09 09:48:34;;;;;;;16.37;7.90;;;1.10;97.30;;;;;;4899052;29;20188;-78
2021/01/09 09:51:10;;;;;;;40.00;25.73;;;1.10;97.30;;;;;;4899918;29;20485;-79
2021/01/09 09:53:38;;;;;;;21.97;9.40;;;1.20;97.30;;;;;;4904594;29;20441;-79
2021/01/09 09:56:18;;;;;;;19.13;8.63;;;1.20;97.30;;;;;;4908167;29;20437;-79
2021/01/09 09:58:44;;;;;;;20.90;8.90;;;1.30;97.30;;;;;;4901445;29;20547;-79
2021/01/09 10:01:23;;;;;;;27.50;9.30;;;1.30;97.30;;;;;;4900672;29;20463;-79
2021/01/09 10:07:22;;;;;;;23.70;9.10;;;1.30;97.30;;;;;;4901804;29;20465;-79
2021/01/09 10:09:48;;;;;;;21.77;9.90;;;1.30;97.30;;;;;;4881653;29;20513;-79
2021/01/09 10:12:14;;;;;;;19.67;9.57;;;1.30;97.30;;;;;;4882378;29;20475;-80
2021/01/09 10:14:43;;;;;;;26.83;9.17;;;1.30;97.30;;;;;;4883990;29;20429;-78
2021/01/09 10:17:21;;;;;;;21.57;10.00;;;1.30;97.30;;;;;;4882438;29;20189;-78
2021/01/09 10:19:53;;;;;;;24.10;10.00;;;1.30;97.30;;;;;;4883864;29;20446;-78
2021/01/09 10:22:19;;;;;;;20.40;9.27;;;1.40;97.30;;;;;;4895556;29;20445;-80
2021/01/09 10:24:45;;;;;;;17.80;8.93;;;1.40;97.30;;;;;;4902772;29;20460;-78
2021/01/09 10:27:12;;;;;;;21.43;8.87;;;1.40;97.30;;;;;;4904773;29;20417;-79
2021/01/09 10:29:38;;;;;;;18.77;9.60;;;1.50;97.30;;;;;;4885118;29;20224;-80
2021/01/09 10:32:04;;;;;;;23.20;9.60;;;1.50;97.30;;;;;;4900754;29;20450;-82
2021/01/09 10:34:30;;;;;;;17.30;8.90;;;1.50;97.30;;;;;;4900476;29;20655;-83
2021/01/09 10:36:56;;;;;;;24.73;9.97;;;1.50;97.30;;;;;;4899171;29;20248;-84
2021/01/09 10:39:22;;;;;;;26.80;10.30;;;1.50;97.30;;;;;;4907483;29;20495;-74
2021/01/09 10:42:05;;;;;;;20.97;9.07;;;1.40;97.30;;;;;;4906304;29;20221;-77
2021/01/09 10:44:31;;;;;;;22.27;9.63;;;1.40;97.30;;;;;;4905427;29;20280;-79
2021/01/09 10:46:57;;;;;;;23.63;10.60;;;1.40;97.30;;;;;;4900504;29;20445;-78
2021/01/09 10:49:23;;;;;;;26.27;11.37;;;1.40;97.30;;;;;;4900757;29;20245;-80
2021/01/09 10:51:48;;;;;;;21.40;9.33;;;1.50;97.30;;;;;;4898643;29;20746;-79
2021/01/09 10:54:16;;;;;;;24.37;10.17;;;1.40;97.30;;;;;;4899717;29;20639;-75
2021/01/09 10:56:46;;;;;;;22.77;11.20;;;1.40;97.30;;;;;;4883843;29;20193;-77
2021/01/09 10:59:13;;;;;;;22.20;11.23;;;1.40;97.30;;;;;;4901488;29;20473;-77
2021/01/09 11:01:40;;;;;;;25.60;10.50;;;1.40;97.30;;;;;;4898975;29;20555;-76
2021/01/09 11:04:06;;;;;;;22.67;10.13;;;1.40;97.30;;;;;;4901425;29;20421;-84
2021/01/09 11:06:32;;;;;;;26.13;11.30;;;1.40;97.30;;;;;;4901997;29;20448;-78
2021/01/09 11:08:58;;;;;;;23.50;9.67;;;1.30;97.30;;;;;;4901336;29;20473;-79
2021/01/09 11:11:24;;;;;;;22.07;10.80;;;1.40;97.30;;;;;;4901852;29;20555;-79
2021/01/09 11:13:51;;;;;;;31.73;12.83;;;1.30;97.30;;;;;;4903215;29;20602;-79
2021/01/09 11:16:24;;;;;;;26.50;11.40;;;1.40;97.30;;;;;;4901707;29;20429;-78
2021/01/09 11:18:52;;;;;;;31.30;10.97;;;1.40;97.30;;;;;;4901847;29;20512;-78
2021/01/09 11:21:27;;;;;;;26.43;11.40;;;1.30;97.30;;;;;;4899064;29;20445;-78
2021/01/09 11:23:52;;;;;;;30.97;11.80;;;1.30;97.30;;;;;;4899981;29;20421;-78
2021/01/09 11:26:24;;;;;;;27.03;11.17;;;1.30;97.30;;;;;;4899955;29;20798;-77
2021/01/09 11:28:53;;;;;;;27.27;12.07;;;1.30;97.30;;;;;;4898789;29;20272;-77
2021/01/09 11:31:20;;;;;;;35.20;12.33;;;1.30;97.30;;;;;;4903961;29;20448;-77
2021/01/09 11:33:48;;;;;;;32.30;12.43;;;1.30;97.30;;;;;;4904954;29;20523;-78
2021/01/09 11:36:25;;;;;;;37.90;13.23;;;1.30;97.30;;;;;;4905568;29;20446;-78
2021/01/09 11:38:57;;;;;;;30.07;12.13;;;1.20;97.30;;;;;;4906507;29;20468;-77
2021/01/09 11:41:32;;;;;;;34.87;12.47;;;1.20;97.30;;;;;;4907725;29;20520;-77
2021/01/09 11:43:58;;;;;;;29.27;12.53;;;1.20;97.30;;;;;;4906130;29;20427;-75
2021/01/09 11:46:27;;;;;;;34.87;12.87;;;1.20;97.30;;;;;;4901368;29;20433;-77
2021/01/09 11:48:53;;;;;;;36.37;13.93;;;1.20;97.30;;;;;;4901416;29;20181;-76
2021/01/09 11:51:29;;;;;;;38.77;13.87;;;1.20;97.30;;;;;;4903015;29;20456;-76
2021/01/09 11:54:08;;;;;;;37.90;12.67;;;1.20;97.30;;;;;;4905658;29;20409;-76
2021/01/09 11:56:34;;;;;;;34.70;13.10;;;1.30;97.30;;;;;;4905033;29;20520;-76
2021/01/09 11:59:00;;;;;;;37.30;14.60;;;1.20;97.30;;;;;;4904580;29;20537;-77
2021/01/09 12:01:35;;;;;;;38.20;13.30;;;1.20;97.30;;;;;;4903822;29;20453;-77
2021/01/09 12:04:12;;;;;;;37.10;12.30;;;1.20;97.30;;;;;;4903130;29;20181;-76
2021/01/09 12:06:38;;;;;;;44.77;14.83;;;1.20;97.30;;;;;;4885861;29;20786;-76
2021/01/09 12:09:18;;;;;;;41.60;14.73;;;1.20;97.30;;;;;;4905339;29;20421;-75
2021/01/09 12:11:45;;;;;;;40.10;14.40;;;1.20;97.30;;;;;;4901803;29;20748;-76
2021/01/09 12:14:13;;;;;;;44.00;16.87;;;1.20;97.30;;;;;;4900282;29;20430;-76
2021/01/09 12:16:38;;;;;;;40.63;17.20;;;1.20;97.30;;;;;;4900105;29;20225;-75
2021/01/09 12:19:25;;;;;;;36.00;13.83;;;1.30;97.30;;;;;;4901280;29;20457;-76
2021/01/09 12:21:56;;;;;;;42.93;14.87;;;1.30;97.30;;;;;;4900633;29;20209;-76
2021/01/09 12:24:29;;;;;;;39.87;14.43;;;1.30;97.30;;;;;;4901448;29;20413;-75
2021/01/09 12:27:01;;;;;;;36.63;12.40;;;1.30;97.30;;;;;;4900773;29;20421;-75
2021/01/09 12:29:27;;;;;;;41.17;14.27;;;1.30;97.30;;;;;;4901426;29;20425;-75
2021/01/09 12:31:52;;;;;;;33.00;13.37;;;1.30;97.30;;;;;;4900959;29;20452;-75
2021/01/09 12:34:18;;;;;;;43.77;13.10;;;1.30;97.30;;;;;;4901358;29;20414;-76
2021/01/09 12:36:49;;;;;;;43.53;14.53;;;1.30;97.30;;;;;;4899701;29;20184;-75
2021/01/09 12:39:14;;;;;;;40.40;14.40;;;1.30;97.30;;;;;;4899353;29;20217;-76
2021/01/09 12:41:40;;;;;;;38.27;13.03;;;1.30;97.30;;;;;;4898102;29;20960;-74
2021/01/09 12:44:10;;;;;;;31.67;11.80;;;1.30;97.30;;;;;;4900661;29;20177;-75
2021/01/09 12:46:43;;;;;;;42.97;14.13;;;1.30;97.30;;;;;;4900070;29;20445;-76
2021/01/09 12:49:18;;;;;;;45.80;17.57;;;1.30;97.30;;;;;;4899812;29;20777;-76
2021/01/09 12:51:47;;;;;;;50.93;20.00;;;1.30;97.30;;;;;;4899687;29;20477;-76
2021/01/09 12:54:13;;;;;;;70.33;26.07;;;1.30;97.30;;;;;;4899316;29;20432;-76
2021/01/09 12:56:39;;;;;;;42.10;16.00;;;1.30;97.30;;;;;;4899236;29;20425;-76
2021/01/09 12:59:06;;;;;;;41.63;17.70;;;1.30;97.30;;;;;;4899096;29;20512;-76
2021/01/09 13:01:37;;;;;;;36.27;13.13;;;1.30;97.30;;;;;;4899031;29;20460;-76
2021/01/09 13:04:07;;;;;;;41.53;14.13;;;1.30;97.30;;;;;;4899186;29;20412;-76
2021/01/09 13:06:43;;;;;;;35.60;12.83;;;1.30;97.30;;;;;;4899181;29;20782;-76
2021/01/09 13:09:14;;;;;;;43.67;14.17;;;1.30;97.30;;;;;;4899042;29;20452;-75
2021/01/09 13:11:40;;;;;;;35.73;12.30;;;1.30;97.30;;;;;;4899003;29;20793;-75
2021/01/09 13:14:11;;;;;;;41.57;14.00;;;1.30;97.30;;;;;;4899126;29;20498;-75
2021/01/09 13:16:42;;;;;;;46.07;15.37;;;1.30;97.30;;;;;;4899079;29;20477;-76
2021/01/09 13:19:08;;;;;;;39.77;14.10;;;1.30;97.30;;;;;;4898666;29;20480;-75
2021/01/09 13:21:33;;;;;;;62.27;21.20;;;1.30;97.30;;;;;;4898735;29;20445;-76
2021/01/09 13:23:59;;;;;;;38.03;14.33;;;1.20;97.30;;;;;;4898660;29;20189;-76
2021/01/09 13:26:25;;;;;;;38.73;15.07;;;1.20;97.30;;;;;;4898972;29;20260;-75
2021/01/09 13:28:50;;;;;;;51.57;22.17;;;1.20;97.30;;;;;;4898643;29;20177;-75
2021/01/09 13:31:16;;;;;;;40.17;15.90;;;1.20;97.30;;;;;;4898470;29;20778;-75
2021/01/09 13:33:42;;;;;;;43.20;14.20;;;1.20;97.30;;;;;;4898811;29;20229;-75
2021/01/09 13:36:10;;;;;;;38.43;13.80;;;1.20;97.30;;;;;;4898764;29;20216;-75
2021/01/09 13:38:35;;;;;;;28.70;10.80;;;1.20;97.30;;;;;;4898591;29;20300;-76
2021/01/09 13:41:12;;;;;;;35.47;12.20;;;1.10;97.30;;;;;;4898073;29;21030;-75
2021/01/09 13:43:38;;;;;;;43.43;14.43;;;1.10;97.30;;;;;;4898469;29;20168;-75
2021/01/09 13:46:03;;;;;;;48.50;14.13;;;1.10;97.30;;;;;;4898493;29;20445;-76
2021/01/09 13:48:31;;;;;;;46.43;15.73;;;1.10;97.30;;;;;;4898320;29;20185;-75
2021/01/09 13:50:57;;;;;;;43.30;13.77;;;1.10;97.30;;;;;;4898297;29;20212;-77
2021/01/09 13:53:22;;;;;;;55.93;17.63;;;1.10;97.30;;;;;;4898115;29;20417;-76
2021/01/09 13:55:48;;;;;;;44.83;14.43;;;1.10;97.30;;;;;;4898428;29;20185;-76
2021/01/09 13:58:14;;;;;;;32.50;13.97;;;1.10;97.30;;;;;;4898019;29;20219;-76
2021/01/09 14:00:39;;;;;;;48.07;15.33;;;1.10;97.30;;;;;;4898122;29;20291;-76
2021/01/09 14:03:07;;;;;;;40.73;14.97;;;1.10;97.30;;;;;;4898119;29;20183;-76
2021/01/09 14:05:33;;;;;;;45.30;15.17;;;1.10;97.30;;;;;;4898825;29;20177;-77
2021/01/09 14:07:59;;;;;;;36.30;13.70;;;1.10;97.30;;;;;;4899439;29;20785;-77
2021/01/09 14:10:24;;;;;;;44.90;14.57;;;1.10;97.30;;;;;;4898674;29;20648;-77
2021/01/09 14:12:50;;;;;;;48.47;14.07;;;1.10;97.30;;;;;;4898526;29;20260;-77
2021/01/09 14:15:16;;;;;;;45.93;13.90;;;1.10;97.30;;;;;;4898420;29;20216;-77
2021/01/09 14:17:42;;;;;;;50.93;14.53;;;1.10;97.30;;;;;;4899638;29;20421;-77
2021/01/09 14:20:08;;;;;;;44.90;14.23;;;1.10;97.30;;;;;;4900414;29;20421;-77
2021/01/09 14:22:34;;;;;;;44.53;13.67;;;1.10;97.30;;;;;;4899491;29;20200;-77
2021/01/09 14:24:59;;;;;;;43.50;14.13;;;1.10;97.30;;;;;;4898302;29;20512;-77
2021/01/09 14:27:25;;;;;;;42.80;14.03;;;1.10;97.30;;;;;;4899269;29;20936;-77
2021/01/09 14:29:51;;;;;;;42.87;14.97;;;1.10;97.30;;;;;;4899338;29;20184;-77
2021/01/09 14:32:16;;;;;;;42.37;14.57;;;1.10;97.30;;;;;;4897925;29;20200;-77
2021/01/09 14:34:42;;;;;;;43.70;15.87;;;1.10;97.30;;;;;;4899315;29;20520;-77
2021/01/09 14:37:08;;;;;;;53.37;16.97;;;1.10;97.30;;;;;;4898075;29;20572;-77
2021/01/09 14:39:34;;;;;;;44.17;15.53;;;1.10;97.30;;;;;;4897858;29;20544;-77
2021/01/09 14:42:00;;;;;;;49.53;16.87;;;1.10;97.30;;;;;;4897980;29;20577;-77
2021/01/09 14:44:26;;;;;;;54.43;17.73;;;1.10;97.30;;;;;;4897788;29;20425;-77
2021/01/09 14:46:56;;;;;;;50.43;16.33;;;1.10;97.30;;;;;;4897754;29;20413;-78
2021/01/09 14:49:23;;;;;;;53.23;17.53;;;1.00;97.30;;;;;;4897818;29;20205;-78
2021/01/09 14:51:49;;;;;;;45.90;14.53;;;1.00;97.30;;;;;;4897806;29;20445;-78
2021/01/09 14:54:15;;;;;;;45.80;16.43;;;1.00;97.30;;;;;;4897619;29;21036;-78
2021/01/09 14:56:40;;;;;;;45.90;15.80;;;1.00;97.30;;;;;;4898963;29;20496;-77
2021/01/09 14:59:06;;;;;;;40.10;13.50;;;1.00;97.30;;;;;;4897411;29;20683;-77
2021/01/09 15:01:35;;;;;;;47.03;16.17;;;1.00;97.30;;;;;;4897750;29;20590;-77
2021/01/09 15:04:02;;;;;;;46.67;13.90;;;1.00;97.30;;;;;;4897110;29;20445;-77
2021/01/09 15:06:27;;;;;;;44.93;14.20;;;1.00;97.30;;;;;;4897797;29;20437;-77
2021/01/09 15:09:04;;;;;;;40.73;12.77;;;1.00;97.30;;;;;;4897821;29;20912;-79
2021/01/09 15:11:30;;;;;;;39.10;14.23;;;1.00;97.30;;;;;;4897588;29;20255;-78
2021/01/09 15:14:02;;;;;;;34.00;11.60;;;1.00;97.30;;;;;;4890763;29;20920;-77
2021/01/09 15:16:29;;;;;;;37.53;13.80;;;1.00;97.30;;;;;;4879243;29;20876;-76
2021/01/09 15:19:13;;;;;;;40.53;14.60;;;1.00;97.30;;;;;;4878388;29;20840;-76
2021/01/09 15:21:40;;;;;;;37.10;11.57;;;1.00;97.30;;;;;;4878679;29;20442;-76
2021/01/09 15:24:21;;;;;;;33.00;11.97;;;1.00;97.30;;;;;;4883288;29;20417;-77
2021/01/09 15:26:47;;;;;;;37.90;12.40;;;1.00;97.30;;;;;;4898651;29;20433;-76
2021/01/09 15:29:12;;;;;;;33.83;12.97;;;1.00;97.30;;;;;;4897072;29;20784;-76
2021/01/09 15:31:38;;;;;;;41.20;13.97;;;1.00;97.30;;;;;;4897042;29;20230;-77
2021/01/09 15:34:06;;;;;;;35.53;12.97;;;1.00;97.30;;;;;;4897227;29;20180;-77
2021/01/09 15:36:36;;;;;;;44.03;14.17;;;1.00;97.30;;;;;;4897081;29;20827;-77
2021/01/09 15:39:04;;;;;;;34.97;14.07;;;1.00;97.30;;;;;;4897081;29;20465;-76
2021/01/09 15:41:32;;;;;;;57.70;15.60;;;1.00;97.30;;;;;;4897059;29;20441;-77
2021/01/09 15:43:58;;;;;;;36.70;13.03;;;1.00;97.30;;;;;;4897216;29;20475;-77
2021/01/09 15:46:24;;;;;;;53.90;18.00;;;1.00;97.30;;;;;;4897142;29;20482;-77
2021/01/09 15:48:50;;;;;;;42.43;14.03;;;1.00;97.30;;;;;;4897022;29;20512;-77
2021/01/09 15:51:18;;;;;;;48.30;15.53;;;1.00;97.30;;;;;;4897700;29;20208;-77
2021/01/09 15:53:45;;;;;;;48.77;15.70;;;1.00;97.30;;;;;;4899304;29;20250;-78
2021/01/09 15:56:54;;;;;;;41.37;13.63;;;1.00;97.30;;;;;;4897211;29;20920;-78
2021/01/09 15:59:23;;;;;;;42.80;14.57;;;1.00;97.30;;;;;;4897078;29;20473;-77
2021/01/09 16:01:49;;;;;;;43.70;14.17;;;1.00;97.30;;;;;;4893745;29;20976;-78
2021/01/09 16:04:14;;;;;;;43.30;14.60;;;1.00;97.30;;;;;;4878987;29;20429;-78
2021/01/09 16:06:40;;;;;;;43.97;14.40;;;1.00;97.30;;;;;;4878841;29;20185;-77
2021/01/09 16:09:08;;;;;;;36.77;13.57;;;1.00;97.30;;;;;;4878482;29;20265;-78
2021/01/09 16:11:37;;;;;;;42.53;14.53;;;1.00;97.30;;;;;;4878207;29;20702;-78
2021/01/09 16:14:05;;;;;;;52.70;16.40;;;0.90;97.30;;;;;;4878985;29;20418;-78
2021/01/09 16:16:34;;;;;;;47.60;15.60;;;0.90;97.30;;;;;;4881882;29;20426;-77
2021/01/09 16:19:00;;;;;;;42.03;14.60;;;0.90;97.30;;;;;;4866962;29;20574;-78
2021/01/09 16:21:38;;;;;;;47.70;14.20;;;0.90;97.30;;;;;;4892918;29;20433;-78
2021/01/09 16:24:04;;;;;;;44.07;14.47;;;1.00;97.30;;;;;;4900591;29;20420;-78
2021/01/09 16:27:24;;;;;;;39.73;13.80;;;1.00;97.30;;;;;;4900179;29;20422;-78
2021/01/09 16:29:50;;;;;;;39.83;13.93;;;1.00;97.30;;;;;;4931800;29;20497;-78
2021/01/09 16:32:24;;;;;;;48.27;13.80;;;1.00;97.30;;;;;;4900053;29;20864;-78
2021/01/09 16:35:06;;;;;;;41.90;14.57;;;0.90;97.30;;;;;;4899885;29;20176;-78
2021/01/09 16:37:32;;;;;;;37.83;13.93;;;1.00;97.30;;;;;;4900018;29;20452;-78
2021/01/09 16:39:58;;;;;;;41.53;14.53;;;0.90;97.30;;;;;;4884275;29;20552;-78
2021/01/09 16:42:24;;;;;;;45.50;15.10;;;0.90;97.30;;;;;;4899963;29;20955;-78
2021/01/09 16:44:51;;;;;;;40.87;14.37;;;0.90;97.30;;;;;;4900151;29;20461;-78
2021/01/09 16:47:46;;;;;;;44.03;14.07;;;1.00;97.30;;;;;;4899772;29;20437;-78
2021/01/09 16:50:15;;;;;;;39.33;14.20;;;1.00;97.30;;;;;;4900031;29;20428;-78
2021/01/09 16:53:12;;;;;;;42.53;14.83;;;0.90;97.30;;;;;;4900029;29;20436;-78
2021/01/09 16:55:38;;;;;;;37.93;13.47;;;1.00;97.30;;;;;;4903585;29;20436;-78
2021/01/09 16:58:04;;;;;;;42.17;14.17;;;1.00;97.30;;;;;;4905025;29;20512;-78
2021/01/09 17:00:32;;;;;;;46.10;15.13;;;1.00;97.30;;;;;;4902715;29;20438;-78
2021/01/09 17:02:59;;;;;;;51.20;14.30;;;1.00;97.30;;;;;;4901165;29;20205;-78
2021/01/09 17:05:29;;;;;;;40.37;15.47;;;1.00;97.30;;;;;;4901769;29;20449;-78
2021/01/09 17:07:55;;;;;;;45.70;14.87;;;1.00;97.30;;;;;;4899889;29;20772;-79
2021/01/09 17:10:24;;;;;;;37.13;13.90;;;1.00;97.30;;;;;;4899674;29;20448;-78
2021/01/09 17:12:53;;;;;;;37.83;13.30;;;1.00;97.30;;;;;;4900002;29;20441;-78
2021/01/09 17:15:23;;;;;;;38.97;13.13;;;1.00;97.30;;;;;;4901312;29;20798;-78
2021/01/09 17:17:50;;;;;;;38.10;12.93;;;1.00;97.30;;;;;;4899620;29;20429;-79
2021/01/09 17:20:17;;;;;;;34.60;13.40;;;1.00;97.30;;;;;;4899267;29;20441;-79
2021/01/09 17:22:43;;;;;;;34.73;14.07;;;1.00;97.30;;;;;;4899583;29;20461;-80
2021/01/09 17:25:12;;;;;;;37.63;13.73;;;1.00;97.30;;;;;;4900730;29;20508;-78
2021/01/09 17:27:39;;;;;;;39.23;13.90;;;1.00;97.30;;;;;;4897918;29;20425;-78
2021/01/09 17:30:06;;;;;;;34.60;12.63;;;1.00;97.30;;;;;;4899157;29;20418;-78
2021/01/09 17:32:33;;;;;;;46.40;15.87;;;1.00;97.30;;;;;;4898706;29;20533;-78
2021/01/09 17:34:59;;;;;;;38.00;12.43;;;1.00;97.30;;;;;;4899275;29;20436;-78
2021/01/09 17:37:26;;;;;;;37.10;14.30;;;1.00;97.30;;;;;;4898822;29;20432;-78
2021/01/09 17:39:53;;;;;;;37.03;12.57;;;1.00;97.30;;;;;;4899087;29;20504;-78
2021/01/09 17:42:20;;;;;;;37.67;14.13;;;1.00;97.30;;;;;;4898831;29;20493;-78
2021/01/09 17:44:47;;;;;;;40.43;14.80;;;1.00;97.30;;;;;;4930331;29;20873;-78
2021/01/09 17:47:14;;;;;;;38.87;14.10;;;1.00;97.30;;;;;;4898810;29;20428;-78
2021/01/09 17:49:40;;;;;;;34.47;12.73;;;1.00;97.30;;;;;;4898919;29;20871;-77
2021/01/09 17:52:08;;;;;;;40.17;12.83;;;1.00;97.30;;;;;;4900587;29;20480;-78
2021/01/09 17:54:37;;;;;;;36.10;13.57;;;1.00;97.30;;;;;;4899744;29;20426;-78
2021/01/09 17:57:04;;;;;;;33.27;13.20;;;1.00;97.30;;;;;;4899713;29;20834;-78
2021/01/09 17:59:31;;;;;;;33.67;12.43;;;1.00;97.30;;;;;;4898340;29;20825;-78
2021/01/09 18:01:58;;;;;;;45.83;13.83;;;1.00;97.30;;;;;;4929693;29;20469;-78
2021/01/09 18:04:24;;;;;;;38.87;11.83;;;1.00;97.30;;;;;;4883105;29;20951;-78
2021/01/09 18:06:51;;;;;;;37.27;14.00;;;1.00;97.30;;;;;;4898667;29;20844;-78
2021/01/09 18:09:17;;;;;;;36.87;13.27;;;1.00;97.30;;;;;;4899049;29;20564;-78
2021/01/09 18:12:06;;;;;;;39.30;14.20;;;1.00;97.30;;;;;;4893835;29;20552;-78
2021/01/09 18:14:32;;;;;;;33.70;13.47;;;1.00;97.30;;;;;;4879599;29;20543;-78
2021/01/09 18:16:57;;;;;;;44.87;14.87;;;1.00;97.30;;;;;;4879634;29;20893;-78
2021/01/09 18:19:29;;;;;;;34.60;12.53;;;1.00;97.30;;;;;;4881517;29;20222;-78
2021/01/09 18:21:58;;;;;;;42.10;14.03;;;1.00;97.30;;;;;;4865085;29;20210;-78
2021/01/09 18:24:24;;;;;;;37.87;13.17;;;1.00;97.30;;;;;;4879723;29;20505;-78
2021/01/09 18:26:50;;;;;;;45.33;16.23;;;1.00;97.30;;;;;;4879706;29;20454;-78
2021/01/09 18:29:16;;;;;;;35.03;13.37;;;1.00;97.30;;;;;;4879049;29;20249;-78
2021/01/09 18:31:41;;;;;;;42.37;12.90;;;1.00;97.30;;;;;;4879222;29;20213;-78
2021/01/09 18:34:07;;;;;;;46.20;14.80;;;1.00;97.30;;;;;;4879456;29;20186;-78
2021/01/09 18:36:33;;;;;;;38.00;14.03;;;1.00;97.30;;;;;;4879538;29;20559;-78
2021/01/09 18:39:01;;;;;;;42.13;15.43;;;1.00;97.30;;;;;;4878343;29;20216;-78
2021/01/09 18:41:31;;;;;;;48.30;14.97;;;1.10;97.30;;;;;;4879087;29;20454;-78
2021/01/09 18:43:56;;;;;;;36.37;13.07;;;1.00;97.30;;;;;;4879081;29;20422;-78
2021/01/09 18:46:22;;;;;;;49.47;15.00;;;1.00;97.30;;;;;;4879744;29;20513;-78
2021/01/09 18:48:49;;;;;;;45.00;15.40;;;1.00;97.30;;;;;;4896334;29;20196;-77
2021/01/09 18:51:15;;;;;;;49.43;16.40;;;1.00;97.30;;;;;;4898941;29;20193;-78
2021/01/09 18:53:42;;;;;;;43.60;14.60;;;1.00;97.30;;;;;;4897943;29;20424;-78
2021/01/09 18:56:18;;;;;;;39.00;14.33;;;1.00;97.30;;;;;;4899077;29;20436;-77